Time;durP1;ratioP1;P1;durP2;ratioP2;P2;SDS_P1;SDS_P2;PMS_P1;PMS_P2;Temp;Humidity;BMP_temperature;BMP_pressure;BME280_temperature;BME280_humidity;BME280_pressure;Samples;Min_cycle;Max_cycle;Signal;HPM_P1;HPM_P2
2022/11/09 00:02:28;;;;;;;10.70;8.77;;;8.20;99.90;;;;;;6300633;28;20477;-65
2022/11/09 00:05:31;;;;;;;9.70;7.53;;;8.20;99.90;;;;;;6303863;28;20802;-64
2022/11/09 00:08:36;;;;;;;10.30;9.20;;;8.10;99.90;;;;;;6290243;28;20473;-64
2022/11/09 00:11:39;;;;;;;11.53;9.10;;;8.00;99.90;;;;;;6279862;28;20474;-63
2022/11/09 00:14:43;;;;;;;15.60;10.20;;;8.00;99.90;;;;;;6311210;28;20481;-63
2022/11/09 00:17:47;;;;;;;9.57;8.67;;;8.00;99.90;;;;;;6285941;28;20598;-64
2022/11/09 00:20:50;;;;;;;11.97;8.80;;;8.00;99.90;;;;;;6303355;28;20957;-64
2022/11/09 00:23:54;;;;;;;10.03;9.03;;;8.00;99.90;;;;;;6303978;28;20495;-64
2022/11/09 00:26:57;;;;;;;11.80;9.70;;;8.00;99.90;;;;;;6304478;28;20469;-64
2022/11/09 00:30:00;;;;;;;8.50;7.70;;;8.00;99.90;;;;;;6300583;28;20495;-63
2022/11/09 00:33:05;;;;;;;9.30;8.40;;;8.00;99.90;;;;;;6301622;28;20534;-63
2022/11/09 00:36:11;;;;;;;10.53;9.43;;;8.00;99.90;;;;;;6301266;28;20488;-63
2022/11/09 00:39:14;;;;;;;10.70;9.70;;;7.90;99.90;;;;;;6298172;28;20580;-63
2022/11/09 00:42:18;;;;;;;10.97;9.97;;;7.90;99.90;;;;;;6300399;28;20481;-63
2022/11/09 00:45:21;;;;;;;10.63;9.60;;;7.80;99.90;;;;;;6288451;28;20469;-63
2022/11/09 00:48:26;;;;;;;10.23;8.90;;;7.80;99.90;;;;;;6300601;28;20810;-63
2022/11/09 00:51:29;;;;;;;8.73;7.73;;;7.70;99.90;;;;;;6300961;28;20490;-64
2022/11/09 00:54:32;;;;;;;9.80;8.40;;;7.70;99.90;;;;;;6301811;28;20480;-63
2022/11/09 00:57:35;;;;;;;12.70;10.97;;;7.70;99.90;;;;;;6302094;28;20534;-63
2022/11/09 01:00:38;;;;;;;10.77;8.83;;;7.70;99.90;;;;;;6302665;28;20481;-64
2022/11/09 01:03:43;;;;;;;9.30;8.40;;;7.70;99.90;;;;;;6303049;28;20511;-63
2022/11/09 01:06:46;;;;;;;10.97;8.73;;;7.60;99.90;;;;;;6302404;28;20461;-64
2022/11/09 01:09:50;;;;;;;8.77;7.97;;;7.60;99.90;;;;;;6302701;28;20961;-64
2022/11/09 01:12:53;;;;;;;9.70;8.63;;;7.60;99.90;;;;;;6302366;28;20480;-64
2022/11/09 01:15:56;;;;;;;11.37;9.43;;;7.60;99.90;;;;;;6302507;28;20583;-64
2022/11/09 01:19:00;;;;;;;11.90;8.80;;;7.60;99.90;;;;;;6302323;28;20493;-64
2022/11/09 01:22:04;;;;;;;12.87;9.57;;;7.50;99.90;;;;;;6302210;28;20531;-64
2022/11/09 01:25:08;;;;;;;10.70;9.17;;;7.50;99.90;;;;;;6297464;28;20481;-64
2022/11/09 01:28:11;;;;;;;9.40;8.00;;;7.60;99.90;;;;;;6302029;28;20473;-64
2022/11/09 01:31:16;;;;;;;10.67;8.57;;;7.60;99.90;;;;;;6301711;28;20840;-64
2022/11/09 01:34:22;;;;;;;9.67;8.30;;;7.50;99.90;;;;;;6301659;28;20477;-63
2022/11/09 01:37:25;;;;;;;11.87;9.30;;;7.50;99.90;;;;;;6301877;28;20457;-64
2022/11/09 01:40:28;;;;;;;13.90;12.60;;;7.40;99.90;;;;;;6301519;28;20885;-64
2022/11/09 01:43:31;;;;;;;10.00;8.30;;;7.40;99.90;;;;;;6299137;28;20470;-64
2022/11/09 01:46:39;;;;;;;10.70;8.50;;;7.40;99.90;;;;;;6300967;28;20425;-63
2022/11/09 01:49:47;;;;;;;10.17;9.17;;;7.30;99.90;;;;;;6301224;28;20458;-63
2022/11/09 01:52:50;;;;;;;11.40;10.30;;;7.30;99.90;;;;;;6300814;28;20994;-64
2022/11/09 01:55:57;;;;;;;11.40;10.30;;;7.30;99.90;;;;;;6301344;28;20485;-64
2022/11/09 01:59:05;;;;;;;15.37;12.93;;;7.30;99.90;;;;;;6301071;28;20473;-64
2022/11/09 02:02:09;;;;;;;19.40;12.90;;;7.30;99.90;;;;;;6300926;28;20469;-64
2022/11/09 02:05:16;;;;;;;15.97;12.03;;;7.20;99.90;;;;;;6300865;28;20473;-64
2022/11/09 02:08:23;;;;;;;14.87;11.40;;;7.20;99.90;;;;;;6300685;28;20729;-64
2022/11/09 02:11:28;;;;;;;14.77;11.43;;;7.20;99.90;;;;;;6300879;28;20481;-65
2022/11/09 02:14:33;;;;;;;13.00;10.67;;;7.20;99.90;;;;;;6300526;28;20782;-64
2022/11/09 02:17:36;;;;;;;13.57;10.53;;;7.10;99.90;;;;;;6300729;28;20584;-64
2022/11/09 02:20:49;;;;;;;10.97;9.90;;;7.10;99.90;;;;;;6300266;28;20477;-64
2022/11/09 02:23:53;;;;;;;29.30;19.47;;;7.10;99.90;;;;;;6299710;28;20546;-64
2022/11/09 02:26:56;;;;;;;20.33;14.20;;;7.10;99.90;;;;;;6289191;28;20473;-65
2022/11/09 02:30:00;;;;;;;14.60;10.27;;;7.00;99.90;;;;;;6298745;28;20489;-64
2022/11/09 02:33:04;;;;;;;11.00;8.93;;;7.00;99.90;;;;;;6298365;28;20473;-65
2022/11/09 02:36:08;;;;;;;12.70;10.70;;;7.00;99.90;;;;;;6298418;28;20476;-64
2022/11/09 02:39:15;;;;;;;14.67;11.90;;;7.00;99.90;;;;;;6298782;28;20466;-64
2022/11/09 02:42:18;;;;;;;12.57;8.23;;;6.90;99.90;;;;;;6300037;28;20474;-64
2022/11/09 02:45:23;;;;;;;13.27;7.97;;;7.00;99.90;;;;;;6300170;28;20465;-64
2022/11/09 02:48:26;;;;;;;11.40;9.50;;;7.00;99.90;;;;;;6299411;28;20465;-64
2022/11/09 02:51:31;;;;;;;9.67;8.67;;;7.00;99.90;;;;;;6298999;28;20530;-64
2022/11/09 02:54:35;;;;;;;9.33;8.43;;;6.90;99.90;;;;;;6299384;28;20470;-64
2022/11/09 02:57:38;;;;;;;8.73;7.80;;;6.90;99.90;;;;;;6299145;28;20580;-64
2022/11/09 03:00:41;;;;;;;8.73;7.90;;;6.90;99.90;;;;;;6299364;28;20988;-64
2022/11/09 03:03:44;;;;;;;12.23;8.50;;;6.90;99.90;;;;;;6298935;28;20941;-64
2022/11/09 03:06:49;;;;;;;12.73;11.43;;;6.90;99.90;;;;;;6299007;28;20877;-64
2022/11/09 03:09:53;;;;;;;12.63;11.33;;;6.90;99.90;;;;;;6299084;28;20480;-64
2022/11/09 03:12:56;;;;;;;12.10;10.87;;;6.90;99.90;;;;;;6299251;28;20576;-64
2022/11/09 03:16:04;;;;;;;13.20;9.90;;;6.80;99.90;;;;;;6299299;28;20787;-64
2022/11/09 03:19:07;;;;;;;10.67;9.20;;;6.80;99.90;;;;;;6298784;28;20489;-64
2022/11/09 03:22:12;;;;;;;8.90;8.07;;;6.80;99.90;;;;;;6299011;28;20481;-65
2022/11/09 03:25:15;;;;;;;11.50;8.73;;;6.80;99.90;;;;;;6299036;28;20477;-64
2022/11/09 03:28:18;;;;;;;9.43;8.47;;;6.70;99.90;;;;;;6299123;28;20472;-65
2022/11/09 03:31:21;;;;;;;10.00;8.97;;;6.70;99.90;;;;;;6294672;28;20553;-64
2022/11/09 03:34:24;;;;;;;8.80;8.00;;;6.70;99.90;;;;;;6299074;28;20454;-64
2022/11/09 03:37:29;;;;;;;9.93;8.93;;;6.60;99.90;;;;;;6297741;28;20541;-64
2022/11/09 03:40:32;;;;;;;9.57;8.70;;;6.70;99.90;;;;;;6298449;28;20446;-64
2022/11/09 03:43:35;;;;;;;8.97;8.17;;;6.60;99.90;;;;;;6298141;28;20453;-64
2022/11/09 03:46:38;;;;;;;9.60;8.33;;;6.60;99.90;;;;;;6298535;28;20460;-64
2022/11/09 03:49:42;;;;;;;12.07;9.33;;;6.70;99.90;;;;;;6298771;28;20944;-64
2022/11/09 03:52:47;;;;;;;17.60;16.07;;;6.60;99.90;;;;;;6298467;28;20909;-64
2022/11/09 03:55:50;;;;;;;16.03;14.57;;;6.70;99.90;;;;;;6299357;28;20465;-64
2022/11/09 03:58:53;;;;;;;13.87;12.40;;;6.60;99.90;;;;;;6298399;28;20477;-65
2022/11/09 04:01:56;;;;;;;11.87;10.10;;;6.60;99.90;;;;;;6298739;28;20543;-63
2022/11/09 04:04:59;;;;;;;9.80;8.73;;;6.50;99.90;;;;;;6298758;28;20473;-64
2022/11/09 04:08:05;;;;;;;9.10;8.17;;;6.60;99.90;;;;;;6302085;28;20473;-64
2022/11/09 04:11:08;;;;;;;9.40;8.50;;;6.50;99.90;;;;;;6303063;28;20477;-64
2022/11/09 04:14:11;;;;;;;9.07;8.10;;;6.50;99.90;;;;;;6301819;28;20538;-63
2022/11/09 04:17:14;;;;;;;8.57;7.77;;;6.50;99.90;;;;;;6298995;28;20546;-63
2022/11/09 04:20:17;;;;;;;8.77;7.97;;;6.50;99.90;;;;;;6298884;28;20481;-63
2022/11/09 04:23:22;;;;;;;9.87;7.30;;;6.50;99.90;;;;;;6298598;28;21008;-63
2022/11/09 04:26:25;;;;;;;8.93;8.03;;;6.50;99.90;;;;;;6298620;28;20615;-63
2022/11/09 04:29:28;;;;;;;9.37;8.33;;;6.40;99.90;;;;;;6298412;28;20481;-63
2022/11/09 04:32:31;;;;;;;10.03;8.07;;;6.40;99.90;;;;;;6294465;28;21038;-63
2022/11/09 04:35:34;;;;;;;8.70;7.57;;;6.40;99.90;;;;;;6299641;28;20538;-64
2022/11/09 04:38:39;;;;;;;10.10;8.73;;;6.50;99.90;;;;;;6298021;28;20477;-64
2022/11/09 04:41:42;;;;;;;10.17;8.43;;;6.40;99.90;;;;;;6297839;28;20477;-64
2022/11/09 04:44:45;;;;;;;9.03;8.13;;;6.40;99.90;;;;;;6297971;28;20477;-64
2022/11/09 04:47:48;;;;;;;9.53;8.47;;;6.50;99.90;;;;;;6298273;28;20766;-64
2022/11/09 04:50:51;;;;;;;10.57;8.83;;;6.40;99.90;;;;;;6302325;28;20548;-64
2022/11/09 04:53:56;;;;;;;11.00;8.37;;;6.40;99.90;;;;;;6302182;28;20488;-64
2022/11/09 04:56:59;;;;;;;10.30;9.13;;;6.40;99.90;;;;;;6302422;28;20779;-64
2022/11/09 05:00:02;;;;;;;9.23;7.83;;;6.40;99.90;;;;;;6302422;28;20827;-63
2022/11/09 05:03:06;;;;;;;10.30;9.20;;;6.50;99.90;;;;;;6302111;28;20514;-64
2022/11/09 05:09:28;;;;;;;8.40;7.60;;;6.50;99.90;;;;;;6302599;28;20484;-64
2022/11/09 05:12:31;;;;;;;8.37;7.57;;;6.50;99.90;;;;;;6302524;28;20988;-64
2022/11/09 05:15:35;;;;;;;11.70;7.57;;;6.50;99.90;;;;;;6301963;28;20477;-63
2022/11/09 05:18:38;;;;;;;8.47;7.53;;;6.40;99.90;;;;;;6301940;28;20489;-63
2022/11/09 05:21:41;;;;;;;9.23;7.63;;;6.40;99.90;;;;;;6301934;28;21022;-63
2022/11/09 05:24:45;;;;;;;10.07;8.07;;;6.40;99.90;;;;;;6302172;28;20492;-63
2022/11/09 05:27:48;;;;;;;10.30;8.50;;;6.40;99.90;;;;;;6301582;28;20576;-64
2022/11/09 05:30:51;;;;;;;10.00;8.40;;;6.40;99.90;;;;;;6301994;28;20531;-63
2022/11/09 05:33:54;;;;;;;9.07;8.07;;;6.30;99.90;;;;;;6301577;28;20484;-63
2022/11/09 05:36:58;;;;;;;7.73;6.93;;;6.30;99.90;;;;;;6300616;28;20481;-64
2022/11/09 05:40:09;;;;;;;9.70;8.77;;;6.30;99.90;;;;;;6301734;28;20558;-64
2022/11/09 05:43:12;;;;;;;11.63;10.43;;;6.30;99.90;;;;;;6301144;28;20767;-63
2022/11/09 05:46:16;;;;;;;11.27;10.10;;;6.30;99.90;;;;;;6301311;28;20478;-63
2022/11/09 05:49:19;;;;;;;11.83;9.73;;;6.20;99.90;;;;;;6300811;28;20910;-63
2022/11/09 05:52:22;;;;;;;11.30;10.17;;;6.30;99.90;;;;;;6301440;28;20766;-63
2022/11/09 05:55:27;;;;;;;12.10;9.60;;;6.30;99.90;;;;;;6301167;28;20975;-63
2022/11/09 05:58:31;;;;;;;10.03;8.40;;;6.30;99.90;;;;;;6302262;28;20473;-63
2022/11/09 06:01:35;;;;;;;9.67;8.67;;;6.20;99.90;;;;;;6303412;28;20460;-63
2022/11/09 06:04:38;;;;;;;9.53;8.30;;;6.10;99.90;;;;;;6301207;28;20945;-62
2022/11/09 06:07:41;;;;;;;10.33;8.17;;;6.20;99.90;;;;;;6301145;28;20448;-62
2022/11/09 06:10:45;;;;;;;10.83;9.40;;;6.20;99.90;;;;;;6301207;28;20484;-62
2022/11/09 06:13:49;;;;;;;11.07;10.00;;;6.20;99.90;;;;;;6300889;28;20567;-63
2022/11/09 06:16:52;;;;;;;9.90;8.60;;;6.30;99.90;;;;;;6300441;28;20805;-63
2022/11/09 06:19:55;;;;;;;11.80;10.00;;;6.30;99.90;;;;;;6300349;28;20477;-63
2022/11/09 06:23:00;;;;;;;11.20;9.40;;;6.40;99.90;;;;;;6300256;28;20546;-62
2022/11/09 06:26:09;;;;;;;10.57;9.10;;;6.40;99.90;;;;;;6300827;28;20476;-63
2022/11/09 06:29:12;;;;;;;14.47;9.93;;;6.50;99.90;;;;;;6300800;28;20946;-64
2022/11/09 06:32:15;;;;;;;10.40;9.30;;;6.60;99.90;;;;;;6299553;28;20488;-64
2022/11/09 06:35:18;;;;;;;8.63;7.70;;;6.60;99.90;;;;;;6300073;28;21015;-64
2022/11/09 06:38:21;;;;;;;13.10;9.77;;;6.70;99.90;;;;;;6300506;28;20481;-64
2022/11/09 06:41:26;;;;;;;12.07;8.80;;;6.70;99.90;;;;;;6299080;28;20945;-64
2022/11/09 06:44:29;;;;;;;9.67;8.77;;;6.80;99.90;;;;;;6300544;28;20542;-64
2022/11/09 06:47:32;;;;;;;9.80;8.90;;;6.80;99.90;;;;;;6300101;28;20481;-64
2022/11/09 06:50:35;;;;;;;12.10;9.63;;;6.90;99.90;;;;;;6300447;28;20470;-63
2022/11/09 06:53:40;;;;;;;10.73;9.63;;;7.00;99.90;;;;;;6300504;28;20590;-63
2022/11/09 06:56:44;;;;;;;10.53;9.43;;;7.10;99.90;;;;;;6300365;28;20473;-63
2022/11/09 06:59:47;;;;;;;9.70;8.80;;;7.10;99.90;;;;;;6300171;28;20470;-64
2022/11/09 07:02:51;;;;;;;11.83;9.80;;;7.20;99.90;;;;;;6299612;28;20481;-64
2022/11/09 07:05:54;;;;;;;9.87;8.87;;;7.20;99.90;;;;;;6300233;28;20473;-64
2022/11/09 07:08:57;;;;;;;10.73;9.60;;;7.30;99.90;;;;;;6299726;28;20471;-63
2022/11/09 07:12:02;;;;;;;9.07;8.07;;;7.40;99.90;;;;;;6300565;28;20500;-64
2022/11/09 07:15:07;;;;;;;10.80;9.70;;;7.40;99.90;;;;;;6300056;28;20474;-64
2022/11/09 07:18:12;;;;;;;9.90;8.90;;;7.50;99.90;;;;;;6299656;28;20469;-64
2022/11/09 07:21:15;;;;;;;13.57;10.60;;;7.60;99.90;;;;;;6299153;28;20816;-64
2022/11/09 07:24:18;;;;;;;11.03;9.33;;;7.70;99.90;;;;;;6299540;28;20486;-64
2022/11/09 07:27:23;;;;;;;15.07;10.87;;;7.70;99.90;;;;;;6299290;28;20497;-65
2022/11/09 07:30:30;;;;;;;40.20;14.50;;;7.70;99.90;;;;;;6298884;28;21946;-64
2022/11/09 07:33:33;;;;;;;37.70;14.10;;;7.80;99.90;;;;;;6296109;28;20481;-64
2022/11/09 07:36:36;;;;;;;34.43;13.60;;;7.80;99.90;;;;;;6298686;28;20496;-63
2022/11/09 07:39:39;;;;;;;15.57;13.93;;;7.80;99.90;;;;;;6298437;28;20473;-63
2022/11/09 07:42:44;;;;;;;13.77;12.37;;;7.80;99.90;;;;;;6298211;28;20473;-63
2022/11/09 07:45:47;;;;;;;16.33;14.63;;;8.00;99.90;;;;;;6298534;28;20752;-63
2022/11/09 07:48:50;;;;;;;66.17;17.90;;;8.10;99.90;;;;;;6298645;28;20477;-64
2022/11/09 07:51:53;;;;;;;50.13;15.73;;;8.20;99.90;;;;;;6298507;28;20503;-63
2022/11/09 07:54:57;;;;;;;21.00;11.03;;;8.30;99.90;;;;;;6296220;28;20477;-63
2022/11/09 07:58:03;;;;;;;18.53;9.63;;;8.40;99.90;;;;;;6298470;28;20534;-63
2022/11/09 08:01:08;;;;;;;17.03;10.77;;;8.50;99.90;;;;;;6298042;28;20473;-63
2022/11/09 08:04:11;;;;;;;12.90;10.43;;;8.60;99.90;;;;;;6295415;28;20980;-64
2022/11/09 08:07:14;;;;;;;15.40;9.37;;;8.70;99.90;;;;;;6297948;28;20481;-63
2022/11/09 08:10:17;;;;;;;10.57;7.90;;;8.70;99.90;;;;;;6298374;28;20468;-63
2022/11/09 08:13:22;;;;;;;12.60;9.77;;;8.90;99.90;;;;;;6297842;28;20984;-63
2022/11/09 08:16:26;;;;;;;11.90;10.70;;;9.00;99.90;;;;;;6298286;28;20453;-64
2022/11/09 08:19:29;;;;;;;12.03;8.90;;;9.10;99.90;;;;;;6299724;28;20489;-64
2022/11/09 08:22:32;;;;;;;12.83;8.90;;;9.20;99.90;;;;;;6305151;28;20464;-63
2022/11/09 08:25:36;;;;;;;11.47;9.00;;;9.30;99.90;;;;;;6304982;28;20442;-63
2022/11/09 08:28:40;;;;;;;8.77;7.53;;;9.40;99.90;;;;;;6300407;28;20515;-63
2022/11/09 08:31:43;;;;;;;21.53;19.23;;;9.50;99.90;;;;;;6302832;28;20917;-63
2022/11/09 08:34:48;;;;;;;12.97;11.63;;;9.60;99.90;;;;;;6303149;28;20901;-63
2022/11/09 08:37:52;;;;;;;11.50;9.30;;;9.70;99.90;;;;;;6303610;28;20792;-63
2022/11/09 08:40:58;;;;;;;16.10;12.03;;;9.90;99.90;;;;;;6303019;28;20480;-63
2022/11/09 08:44:03;;;;;;;14.23;10.63;;;10.00;99.90;;;;;;6303353;28;20473;-63
2022/11/09 08:47:06;;;;;;;12.90;11.10;;;10.10;99.90;;;;;;6302816;28;20473;-63
2022/11/09 08:50:11;;;;;;;13.60;11.67;;;10.20;99.90;;;;;;6299019;28;20488;-63
2022/11/09 08:53:14;;;;;;;13.73;11.33;;;10.20;99.90;;;;;;6302360;28;20487;-63
2022/11/09 08:56:17;;;;;;;15.43;10.10;;;10.30;99.90;;;;;;6284849;28;20474;-64
2022/11/09 08:59:23;;;;;;;13.43;12.13;;;10.40;99.90;;;;;;6286478;28;20488;-64
2022/11/09 09:02:26;;;;;;;13.10;11.80;;;10.40;99.90;;;;;;6302611;28;20473;-63
2022/11/09 09:05:29;;;;;;;13.90;11.43;;;10.40;99.90;;;;;;6302265;28;20980;-63
2022/11/09 09:08:32;;;;;;;14.63;12.20;;;10.40;99.90;;;;;;6302010;28;20519;-62
2022/11/09 09:11:35;;;;;;;13.93;12.40;;;10.60;99.90;;;;;;6303319;28;20461;-63
2022/11/09 09:14:40;;;;;;;13.90;11.80;;;10.70;99.90;;;;;;6302837;28;20477;-62
2022/11/09 09:17:43;;;;;;;18.27;11.90;;;10.80;99.90;;;;;;6302118;28;20496;-62
2022/11/09 09:20:47;;;;;;;13.00;10.37;;;11.10;99.90;;;;;;6301763;28;20471;-62
2022/11/09 09:23:50;;;;;;;17.20;11.50;;;11.40;99.90;;;;;;6302104;28;20470;-62
2022/11/09 09:26:53;;;;;;;17.00;11.53;;;11.80;99.90;;;;;;6301800;28;20469;-63
2022/11/09 09:29:58;;;;;;;13.90;11.47;;;12.60;99.90;;;;;;6302205;28;20835;-63
2022/11/09 09:33:01;;;;;;;12.20;10.90;;;14.80;99.90;;;;;;6301902;28;20537;-62
2022/11/09 09:36:05;;;;;;;13.17;9.73;;;18.40;95.60;;;;;;6301198;28;20465;-63
2022/11/09 09:39:08;;;;;;;12.03;10.77;;;22.30;81.40;;;;;;6294860;28;20227;-62
2022/11/09 09:42:15;;;;;;;13.27;11.97;;;25.20;60.10;;;;;;6301309;28;20560;-63
2022/11/09 09:45:23;;;;;;;12.03;10.83;;;27.90;48.90;;;;;;6288696;28;20240;-64
2022/11/09 09:48:35;;;;;;;11.70;10.70;;;29.60;41.20;;;;;;6284128;28;20571;-63
2022/11/09 09:51:42;;;;;;;13.15;11.77;;;31.20;36.40;;;;;;6272584;28;20237;-65
2022/11/09 09:54:53;;;;;;;12.00;10.90;;;33.10;32.10;;;;;;6300445;28;20249;-64
2022/11/09 09:58:04;;;;;;;10.43;9.52;;;34.20;29.10;;;;;;6275588;28;20242;-63
2022/11/09 10:01:15;;;;;;;10.50;9.60;;;35.40;27.40;;;;;;6300530;28;20341;-64
2022/11/09 10:04:20;;;;;;;11.25;10.15;;;36.40;25.90;;;;;;6300919;28;20946;-63
2022/11/09 10:07:29;;;;;;;12.25;11.18;;;36.50;25.10;;;;;;6301869;28;20229;-63
2022/11/09 10:10:43;;;;;;;11.65;10.13;;;36.50;24.60;;;;;;6301397;28;20221;-64
2022/11/09 10:14:09;;;;;;;12.27;11.18;;;37.20;24.40;;;;;;6301076;28;20233;-65
2022/11/09 10:17:27;;;;;;;10.63;9.63;;;37.60;23.90;;;;;;6300527;28;20671;-64
2022/11/09 10:20:43;;;;;;;11.30;10.30;;;37.50;23.40;;;;;;6301261;28;20241;-64
2022/11/09 10:24:03;;;;;;;10.57;9.77;;;38.20;22.80;;;;;;6301092;28;20238;-63
2022/11/09 10:27:22;;;;;;;10.50;9.70;;;37.20;23.50;;;;;;6300681;28;20244;-63
2022/11/09 10:30:27;;;;;;;11.38;10.43;;;37.10;23.10;;;;;;6301637;28;20690;-63
2022/11/09 10:33:32;;;;;;;10.52;9.52;;;37.40;23.40;;;;;;6308714;28;20780;-64
2022/11/09 10:36:43;;;;;;;10.35;9.65;;;38.00;22.80;;;;;;6303336;28;20702;-64
2022/11/09 10:39:51;;;;;;;10.77;9.75;;;38.70;22.30;;;;;;6284804;28;20285;-63
2022/11/09 10:42:56;;;;;;;9.93;8.93;;;39.50;21.40;;;;;;6275196;28;20248;-64
2022/11/09 10:46:03;;;;;;;9.95;9.15;;;39.70;21.10;;;;;;6274776;28;20708;-63
2022/11/09 10:49:20;;;;;;;9.35;8.65;;;39.10;21.60;;;;;;6325046;28;20343;-63
2022/11/09 10:52:38;;;;;;;9.73;9.02;;;38.60;21.80;;;;;;6324827;28;20238;-63
2022/11/09 10:55:54;;;;;;;9.73;9.02;;;38.60;21.40;;;;;;6325772;28;20227;-64
2022/11/09 10:58:58;;;;;;;9.98;8.95;;;38.80;21.60;;;;;;6325894;28;20313;-63
2022/11/09 11:02:01;;;;;;;9.23;8.48;;;39.70;21.10;;;;;;6326102;28;20244;-63
2022/11/09 11:05:25;;;;;;;9.52;8.73;;;38.60;21.40;;;;;;6326088;28;20229;-63
2022/11/09 11:08:38;;;;;;;9.65;8.85;;;39.10;21.40;;;;;;6317951;28;20236;-63
2022/11/09 11:11:41;;;;;;;8.65;7.82;;;39.60;21.00;;;;;;6300049;28;20682;-64
2022/11/09 11:14:46;;;;;;;8.80;8.10;;;40.30;20.60;;;;;;6300073;28;20232;-63
2022/11/09 11:17:50;;;;;;;9.32;8.52;;;41.00;20.10;;;;;;6299788;28;20302;-63
2022/11/09 11:21:14;;;;;;;9.38;8.68;;;41.00;19.70;;;;;;6299505;28;20243;-63
2022/11/09 11:24:21;;;;;;;9.93;9.00;;;39.70;20.00;;;;;;6299966;28;20333;-63
2022/11/09 11:27:32;;;;;;;8.48;7.78;;;38.80;20.70;;;;;;6300002;28;20226;-63
2022/11/09 11:30:38;;;;;;;16.90;15.20;;;39.10;20.80;;;;;;6300015;28;20315;-64
2022/11/09 11:33:42;;;;;;;11.75;10.85;;;39.90;20.30;;;;;;6299759;28;20235;-64
2022/11/09 11:36:58;;;;;;;10.57;9.52;;;40.60;20.40;;;;;;6299800;28;20235;-64
2022/11/09 11:40:04;;;;;;;11.75;10.65;;;40.70;19.50;;;;;;6283642;28;20232;-64
2022/11/09 11:43:21;;;;;;;9.15;7.88;;;40.20;20.10;;;;;;6274745;28;20237;-64
2022/11/09 11:46:39;;;;;;;8.85;8.20;;;41.10;19.80;;;;;;6278738;28;20533;-64
2022/11/09 11:50:06;;;;;;;10.02;9.25;;;41.90;18.90;;;;;;6325130;28;20187;-64
2022/11/09 11:53:19;;;;;;;9.30;8.60;;;41.80;18.50;;;;;;6324536;28;20241;-64
2022/11/09 11:56:27;;;;;;;8.60;7.90;;;41.90;18.80;;;;;;6324788;28;20284;-64
2022/11/09 11:59:52;;;;;;;9.30;8.60;;;42.30;18.60;;;;;;6312827;28;20233;-64
2022/11/09 12:03:14;;;;;;;8.57;7.97;;;42.20;18.30;;;;;;6293803;28;20261;-63
2022/11/09 12:06:29;;;;;;;9.18;8.38;;;41.40;19.00;;;;;;6298135;28;20248;-64
2022/11/09 12:09:54;;;;;;;9.13;8.43;;;41.90;18.60;;;;;;6297253;28;20252;-64
2022/11/09 12:13:04;;;;;;;8.45;7.53;;;41.50;18.50;;;;;;6297284;28;20248;-63
2022/11/09 12:16:13;;;;;;;8.90;8.20;;;41.00;19.00;;;;;;6298744;28;20241;-63
2022/11/09 12:19:34;;;;;;;10.70;9.43;;;40.80;19.20;;;;;;6298160;28;20243;-65
2022/11/09 12:22:48;;;;;;;11.38;10.45;;;40.60;19.00;;;;;;6271565;28;20258;-64
2022/11/09 12:26:01;;;;;;;11.15;10.25;;;40.20;19.40;;;;;;6272439;28;20232;-63
2022/11/09 12:29:14;;;;;;;11.05;10.23;;;39.20;19.80;;;;;;6277438;28;20222;-64
2022/11/09 12:32:28;;;;;;;10.75;9.90;;;39.30;19.90;;;;;;6294993;28;20241;-63
2022/11/09 12:35:36;;;;;;;10.95;9.95;;;39.70;19.70;;;;;;6297029;28;20612;-63
2022/11/09 12:38:56;;;;;;;10.80;10.00;;;39.50;19.90;;;;;;6296750;28;20279;-64
2022/11/09 12:42:06;;;;;;;11.63;10.18;;;39.20;20.30;;;;;;6295098;28;20248;-64
2022/11/09 12:45:18;;;;;;;13.90;12.52;;;39.30;20.20;;;;;;6273006;28;20256;-62
2022/11/09 12:48:24;;;;;;;11.93;10.95;;;39.00;20.30;;;;;;6309177;28;20673;-64
2022/11/09 12:51:28;;;;;;;16.83;15.23;;;38.70;20.50;;;;;;6307346;28;20242;-64
2022/11/09 12:54:32;;;;;;;13.73;12.32;;;37.70;21.00;;;;;;6296754;28;20241;-62
2022/11/09 12:57:37;;;;;;;13.98;12.57;;;36.80;22.20;;;;;;6297217;28;20238;-62
2022/11/09 13:00:48;;;;;;;17.58;14.75;;;35.30;23.30;;;;;;6275203;28;20231;-63
2022/11/09 13:03:56;;;;;;;18.38;16.52;;;35.30;23.70;;;;;;6271702;28;20246;-63
2022/11/09 13:07:32;;;;;;;17.15;15.55;;;34.80;24.20;;;;;;6278206;28;20223;-63
2022/11/09 13:10:37;;;;;;;48.10;35.28;;;34.90;24.50;;;;;;6286383;28;20239;-64
2022/11/09 13:13:42;;;;;;;24.08;20.63;;;35.00;24.40;;;;;;6301048;28;20229;-62
2022/11/09 13:16:45;;;;;;;18.00;16.40;;;34.20;25.00;;;;;;6300479;28;20203;-63
2022/11/09 13:19:54;;;;;;;20.75;18.63;;;34.20;25.30;;;;;;6301149;28;20245;-62
2022/11/09 13:23:00;;;;;;;12.77;11.70;;;34.00;25.60;;;;;;6300359;28;20243;-64
2022/11/09 13:26:04;;;;;;;16.25;15.05;;;33.60;25.70;;;;;;6301063;28;20237;-63
2022/11/09 13:29:22;;;;;;;11.93;10.95;;;32.90;26.50;;;;;;6299862;28;20230;-63
2022/11/09 13:32:27;;;;;;;11.52;10.50;;;33.10;26.60;;;;;;6300029;28;20238;-63
2022/11/09 13:36:00;;;;;;;11.20;10.30;;;34.00;26.10;;;;;;6299471;28;20237;-64
2022/11/09 13:39:31;;;;;;;11.05;10.05;;;34.70;25.50;;;;;;6299870;28;20230;-63
2022/11/09 13:42:36;;;;;;;11.10;10.20;;;34.30;25.30;;;;;;6300269;28;20234;-65
2022/11/09 13:45:44;;;;;;;12.35;11.20;;;33.30;26.20;;;;;;6300376;28;20238;-64
2022/11/09 13:48:49;;;;;;;10.17;9.27;;;31.30;28.00;;;;;;6300496;28;20612;-63
2022/11/09 13:51:53;;;;;;;11.43;10.43;;;29.60;30.00;;;;;;6299334;28;20223;-63
2022/11/09 13:54:56;;;;;;;11.70;10.60;;;28.50;32.00;;;;;;6299335;28;20262;-63
2022/11/09 13:58:11;;;;;;;12.20;11.20;;;27.10;34.20;;;;;;6274988;28;20227;-64
2022/11/09 14:01:27;;;;;;;12.30;11.30;;;25.80;36.40;;;;;;6273709;28;20235;-63
2022/11/09 14:04:37;;;;;;;10.63;9.80;;;24.50;38.80;;;;;;6273692;28;20230;-63
2022/11/09 14:07:40;;;;;;;11.63;10.53;;;23.50;40.70;;;;;;6264650;28;20195;-63
2022/11/09 14:11:08;;;;;;;10.50;9.40;;;22.50;42.90;;;;;;6273302;28;20207;-63
2022/11/09 14:14:40;;;;;;;10.80;9.07;;;21.60;44.50;;;;;;6272002;28;20236;-63
2022/11/09 14:17:56;;;;;;;10.13;8.23;;;20.70;46.40;;;;;;6272459;28;20677;-63
2022/11/09 14:21:10;;;;;;;9.30;8.50;;;20.20;47.60;;;;;;6273143;28;20671;-63
2022/11/09 14:24:17;;;;;;;11.73;8.93;;;19.90;48.60;;;;;;6274321;28;20687;-63
2022/11/09 14:27:22;;;;;;;9.53;8.57;;;19.50;49.50;;;;;;6273934;28;20231;-63
2022/11/09 14:30:28;;;;;;;9.90;8.90;;;19.20;50.70;;;;;;6273259;28;20679;-63
2022/11/09 14:33:35;;;;;;;11.60;10.50;;;18.70;51.30;;;;;;6273680;28;20239;-63
2022/11/09 14:36:41;;;;;;;13.47;12.27;;;18.10;53.10;;;;;;6274008;28;20250;-63
2022/11/09 14:39:49;;;;;;;17.37;14.40;;;17.40;54.50;;;;;;6281635;28;20229;-63
2022/11/09 14:42:55;;;;;;;13.20;11.90;;;16.40;58.00;;;;;;6298375;28;20493;-63
2022/11/09 14:46:01;;;;;;;13.77;12.40;;;16.00;59.30;;;;;;6298717;28;21232;-62
2022/11/09 14:49:06;;;;;;;15.10;13.50;;;15.80;61.80;;;;;;6298448;28;20473;-62
2022/11/09 14:52:15;;;;;;;18.20;14.17;;;15.30;65.20;;;;;;6298400;28;20476;-62
2022/11/09 14:55:19;;;;;;;16.53;14.83;;;15.10;68.40;;;;;;6297969;28;20615;-63
2022/11/09 14:58:23;;;;;;;15.60;14.00;;;14.80;71.60;;;;;;6300344;28;20786;-62
2022/11/09 15:01:27;;;;;;;15.93;13.33;;;14.30;76.70;;;;;;6322862;28;20479;-62
2022/11/09 15:04:51;;;;;;;16.60;14.73;;;13.90;81.50;;;;;;6323632;28;20763;-63
2022/11/09 15:07:54;;;;;;;14.70;13.03;;;13.70;86.20;;;;;;6323013;28;20472;-63
2022/11/09 15:10:58;;;;;;;15.10;13.50;;;13.50;90.00;;;;;;6318510;28;20537;-63
2022/11/09 15:14:11;;;;;;;15.00;13.50;;;13.40;91.00;;;;;;6322552;28;20980;-62
2022/11/09 15:17:17;;;;;;;16.37;14.50;;;13.20;92.60;;;;;;6322852;28;20468;-62
2022/11/09 15:20:28;;;;;;;15.00;13.40;;;13.10;93.20;;;;;;6322566;28;20483;-63
2022/11/09 15:23:38;;;;;;;15.93;14.17;;;12.90;94.20;;;;;;6322647;28;20785;-63
2022/11/09 15:26:44;;;;;;;16.97;15.17;;;12.60;95.70;;;;;;6323721;28;20472;-62
2022/11/09 15:29:47;;;;;;;17.20;13.93;;;12.30;97.30;;;;;;6324398;28;20487;-63
2022/11/09 15:32:50;;;;;;;17.73;14.27;;;12.00;99.10;;;;;;6323831;28;20472;-62
2022/11/09 15:35:57;;;;;;;15.80;14.00;;;11.80;99.90;;;;;;6325424;28;20487;-62
2022/11/09 15:39:04;;;;;;;17.03;13.93;;;11.70;99.90;;;;;;6322939;28;20468;-62
2022/11/09 15:42:10;;;;;;;14.43;12.93;;;11.70;99.90;;;;;;6298571;28;20488;-63
2022/11/09 15:45:15;;;;;;;16.40;14.27;;;11.60;99.90;;;;;;6298129;28;20942;-63
2022/11/09 15:48:18;;;;;;;15.17;13.53;;;11.50;99.90;;;;;;6299381;28;21016;-62
2022/11/09 15:51:23;;;;;;;17.90;15.43;;;11.40;99.90;;;;;;6299382;28;20562;-63
2022/11/09 15:54:26;;;;;;;15.97;14.03;;;11.40;99.90;;;;;;6298840;28;20484;-63
2022/11/09 15:57:29;;;;;;;17.60;14.90;;;11.40;99.90;;;;;;6297544;28;20473;-63
2022/11/09 16:00:33;;;;;;;16.80;14.80;;;11.30;99.90;;;;;;6310971;28;20548;-65
2022/11/09 16:03:36;;;;;;;19.53;13.93;;;11.30;99.90;;;;;;6298603;28;20550;-63
2022/11/09 16:06:41;;;;;;;17.37;15.57;;;11.30;99.90;;;;;;6298539;28;20488;-64